Detall de PIREP

Printer-friendly versionPDF version

[2015/12/19 09:59:00]
Flight IATA:CT1004
Pilot Number:012
Company ICAO:CAT
Aircraft Type:B463/A
PAX:100
Aircraft Registration:PAX
Departing Airport: LEDA
Destination Airport: EGLC
Alternate Airport:EGCC
Online: VATSIM
Route:ALOSU G23 GRAUS UM601 PPN UP152 BADRU UP87 MOKOR LOGAN
Flight Level:F280
No Slew and time accel
No pause
Crash detect
Detect pilot in Cockpit between each 30 and 45 minutes
09:59 Zero fuel Weight: 73973 Lbs, Fuel Weight: 20707 Lbs
09:59 VATSIM:LEDA 181600Z 06001KT 5000 BR NSC 11/09 Q1027
09:59 VATSIM:EGLC 190920Z 20010KT 9999 FEW012 15/11 Q1014
09:59 X-MAS CHARTER
10:11 Parking Brakes off
10:16 Take-off
10:16 Take off Weight: 94159 Lbs
10:16 Wind: 039º @ 002 Knots Heading: 313º
10:16 POS N41º 43´ 56´´ E000º 31´ 44´´
10:16 Gear Up: 155 Knots
10:16 Flaps:1 at 155 Knots
10:16 Flaps:0 at 170 Knots
10:31 Wind:251º@022 Knots Heading: 294º Ground Speed: 383 Knots Altitude 25862 ft
10:32 TOC
10:32 Fuel Weight: 17668 Lb
10:46 Wind:234º@043 Knots Heading: 315º Ground Speed: 418 Knots Altitude 28280 ft
11:01 Wind:235º@045 Knots Heading: 004º Ground Speed: 443 Knots Altitude 28215 ft
11:16 Wind:232º@053 Knots Heading: 004º Ground Speed: 456 Knots Altitude 28156 ft
11:31 Wind:225º@054 Knots Heading: 023º Ground Speed: 472 Knots Altitude 28116 ft
11:46 Wind:220º@054 Knots Heading: 014º Ground Speed: 473 Knots Altitude 28061 ft
11:52 TOD
11:52 Fuel Weight: 9830 Lb
12:01 Wind:225º@049 Knots Heading: 318º Ground Speed: 278 Knots Altitude 8497 ft
12:09 Flaps:1 at 195 Knots
12:11 Flaps:2 at 154 Knots
12:11 Gear Down: 152 Knots
12:11 Flaps:3 at 143 Knots
12:11 Flaps:4 at 117 Knots
12:14 TouchDown:Rate -116 ft/min Speed: 114 Knots
12:14 VATSIM:EGLC 191150Z 20013KT 170V240 CAVOK 17/11 Q1013
12:14 Land
12:14 Wind:201º@017 Knots
12:14 Heading: 270º
12:14 Flight Duration: 01:58
12:14 Landing Weight: 82801 Lbs
12:14 POS N51º 30´ 19´´ E000º 02´ 59´´
12:15 Parking brakes on
12:15 Block to Block Duration: 02:04
12:15 Final Fuel: 8769 Lbls
12:15 Spent Fuel: 11937 Lbls
12:15 Flight Length: 769 NM
12:15 TOD Land Length: 94 NM

Exportar CSV

Powered by Drupal - Modified by Danger4k